createdAt,value
2023-02-12T00:00:19.017Z,76.64
2023-02-12T00:02:46.973Z,76.68
2023-02-12T00:05:16.435Z,76.50
2023-02-12T00:07:45.737Z,76.58
2023-02-12T00:10:13.352Z,76.52
2023-02-12T00:12:40.940Z,76.43
2023-02-12T00:15:09.541Z,76.66
2023-02-12T00:17:37.141Z,76.35
2023-02-12T00:20:05.224Z,76.07
2023-02-12T00:22:33.079Z,76.44
2023-02-12T00:25:01.997Z,75.75
2023-02-12T00:27:30.053Z,76.04
2023-02-12T00:29:57.664Z,76.22
2023-02-12T00:32:26.917Z,76.20
2023-02-12T00:34:54.528Z,76.35
2023-02-12T00:37:22.608Z,76.45
2023-02-12T00:39:50.313Z,76.44
2023-02-12T00:42:19.553Z,76.72
2023-02-12T00:44:48.351Z,76.00
2023-02-12T00:47:16.917Z,75.71
2023-02-12T00:49:44.902Z,75.63
2023-02-12T00:52:12.620Z,75.62
2023-02-12T00:54:41.024Z,75.52
2023-02-12T00:57:08.613Z,75.73
2023-02-12T00:59:40.064Z,75.62
2023-02-12T01:02:07.661Z,75.82
2023-02-12T01:04:35.872Z,75.67
2023-02-12T01:07:03.620Z,75.34
2023-02-12T01:09:31.628Z,75.34
2023-02-12T01:12:00.823Z,75.32
2023-02-12T01:14:30.018Z,75.48
2023-02-12T01:16:58.948Z,75.73
2023-02-12T01:19:28.155Z,76.00
2023-02-12T01:21:55.839Z,75.99
2023-02-12T01:24:23.773Z,75.96
2023-02-12T01:26:51.586Z,76.17
2023-02-12T01:29:20.312Z,76.22
2023-02-12T01:31:47.996Z,75.85
2023-02-12T01:34:17.703Z,75.71
2023-02-12T01:36:45.703Z,75.66
2023-02-12T01:39:13.855Z,75.89
2023-02-12T01:41:44.221Z,75.76
2023-02-12T01:44:16.738Z,76.18
2023-02-12T01:46:48.098Z,76.10
2023-02-12T01:49:22.821Z,76.27
2023-02-12T01:51:54.251Z,76.33
2023-02-12T01:54:25.729Z,76.31
2023-02-12T01:56:54.210Z,75.96
2023-02-12T01:59:23.191Z,76.19
2023-02-12T02:01:50.898Z,75.96
2023-02-12T02:04:26.313Z,76.46
2023-02-12T02:06:58.346Z,76.32
2023-02-12T02:09:28.339Z,76.27
2023-02-12T02:12:14.141Z,76.35
2023-02-12T02:14:43.690Z,76.15
2023-02-12T02:17:25.046Z,76.29
2023-02-12T02:20:28.810Z,76.07
2023-02-12T02:23:10.533Z,76.30
2023-02-12T02:25:54.083Z,76.04
2023-02-12T02:28:53.012Z,76.18
2023-02-12T02:31:27.596Z,76.06
2023-02-12T02:34:01.086Z,76.16
2023-02-12T02:36:41.415Z,76.34
2023-02-12T02:39:20.951Z,76.18
2023-02-12T02:41:56.396Z,76.77
2023-02-12T02:44:32.445Z,76.74
2023-02-12T02:47:06.230Z,76.73
2023-02-12T02:49:40.387Z,76.58
2023-02-12T02:52:11.724Z,76.91
2023-02-12T02:54:44.758Z,77.04
2023-02-12T02:57:16.946Z,77.42
2023-02-12T02:59:50.564Z,77.59
2023-02-12T03:02:25.990Z,78.36
2023-02-12T03:04:56.685Z,77.92
2023-02-12T03:07:28.841Z,77.82
2023-02-12T03:10:02.791Z,77.57
2023-02-12T03:12:35.125Z,77.18
2023-02-12T03:15:09.066Z,77.33
2023-02-12T03:17:41.961Z,76.98
2023-02-12T03:20:15.896Z,76.93
2023-02-12T03:22:49.136Z,77.40
2023-02-12T03:25:23.332Z,77.17
2023-02-12T03:27:57.873Z,77.05
2023-02-12T03:30:30.472Z,76.31
2023-02-12T03:33:09.209Z,77.42
2023-02-12T03:35:42.912Z,77.61
2023-02-12T03:38:20.364Z,77.47
2023-02-12T03:40:56.930Z,77.87
2023-02-12T03:43:31.108Z,78.50
2023-02-12T03:46:04.885Z,78.83
2023-02-12T03:48:42.259Z,78.55
2023-02-12T03:51:17.901Z,78.60
2023-02-12T03:53:45.681Z,78.48
2023-02-12T03:56:18.650Z,78.31
2023-02-12T03:58:46.680Z,77.63
2023-02-12T04:01:15.481Z,77.80
2023-02-12T04:03:44.867Z,77.72
2023-02-12T04:06:21.363Z,76.88
2023-02-12T04:08:49.181Z,77.63
2023-02-12T04:11:27.277Z,77.34
2023-02-12T04:14:09.178Z,77.14
2023-02-12T04:16:43.023Z,77.20
2023-02-12T04:19:16.112Z,76.44
2023-02-12T04:21:57.744Z,76.32
2023-02-12T04:24:36.866Z,76.22
2023-02-12T04:27:14.276Z,75.59
2023-02-12T04:29:49.151Z,74.49
2023-02-12T04:32:21.460Z,75.22
2023-02-12T04:34:58.292Z,75.31
2023-02-12T04:37:31.288Z,76.62
2023-02-12T04:40:00.860Z,76.34
2023-02-12T04:42:28.765Z,76.93
2023-02-12T04:44:56.425Z,76.73
2023-02-12T04:47:24.588Z,76.58
2023-02-12T04:49:53.915Z,77.28
2023-02-12T04:52:21.795Z,76.93
2023-02-12T04:54:49.346Z,77.28
2023-02-12T04:57:17.444Z,77.48
2023-02-12T04:59:45.023Z,77.21
2023-02-12T05:02:12.793Z,77.70
2023-02-12T05:04:40.480Z,76.69
2023-02-12T05:07:09.934Z,75.61
2023-02-12T05:09:37.732Z,75.86
2023-02-12T05:12:06.691Z,75.58
2023-02-12T05:14:34.382Z,74.75
2023-02-12T05:17:02.691Z,74.77
2023-02-12T05:19:30.299Z,74.69
2023-02-12T05:21:58.112Z,74.72
2023-02-12T05:24:27.087Z,74.58
2023-02-12T05:26:55.460Z,74.41
2023-02-12T05:29:23.145Z,74.41
2023-02-12T05:31:50.864Z,74.34
2023-02-12T05:34:18.554Z,74.58
2023-02-12T05:36:46.991Z,74.10
2023-02-12T05:39:14.598Z,74.65
2023-02-12T05:41:44.411Z,74.74
2023-02-12T05:44:12.380Z,74.87
2023-02-12T05:46:40.700Z,75.47
2023-02-12T05:49:08.740Z,75.13
2023-02-12T05:51:37.675Z,75.71
2023-02-12T05:54:07.444Z,75.63
2023-02-12T05:56:37.313Z,75.38
2023-02-12T05:59:08.700Z,75.99
2023-02-12T06:01:38.886Z,76.18
2023-02-12T06:04:12.391Z,76.35
2023-02-12T06:06:42.034Z,76.14
2023-02-12T06:09:10.943Z,76.17
2023-02-12T06:11:39.989Z,76.88
2023-02-12T06:14:10.523Z,76.60
2023-02-12T06:16:38.329Z,76.95
2023-02-12T06:19:07.336Z,76.92
2023-02-12T06:21:35.264Z,76.89
2023-02-12T06:24:03.199Z,76.82
2023-02-12T06:26:30.862Z,77.00
2023-02-12T06:28:58.742Z,77.39
2023-02-12T06:31:30.618Z,77.34
2023-02-12T06:34:02.411Z,76.96
2023-02-12T06:36:30.340Z,77.51
2023-02-12T06:38:58.614Z,77.48
2023-02-12T06:41:26.193Z,77.50
2023-02-12T06:43:55.004Z,77.23
2023-02-12T06:46:22.692Z,77.63
2023-02-12T06:48:54.679Z,77.76
2023-02-12T06:51:23.497Z,77.97
2023-02-12T06:53:53.710Z,77.93
2023-02-12T06:56:22.785Z,78.02
2023-02-12T06:58:55.172Z,78.41
2023-02-12T07:01:25.119Z,78.49
2023-02-12T07:03:57.549Z,78.05
2023-02-12T07:06:25.933Z,78.17
2023-02-12T07:08:53.906Z,78.02
2023-02-12T07:11:24.735Z,77.87
2023-02-12T07:13:52.705Z,77.72
2023-02-12T07:16:20.609Z,77.46
2023-02-12T07:18:48.258Z,77.25
2023-02-12T07:21:18.192Z,76.93
2023-02-12T07:23:50.800Z,76.65
2023-02-12T07:26:19.607Z,76.96
2023-02-12T07:28:47.735Z,76.79
2023-02-12T07:31:17.979Z,77.24
2023-02-12T07:33:47.097Z,76.72
2023-02-12T07:36:18.633Z,76.30
2023-02-12T07:38:46.756Z,76.34
2023-02-12T07:41:16.795Z,76.77
2023-02-12T07:43:47.085Z,76.48
2023-02-12T07:46:18.021Z,76.27
2023-02-12T07:48:46.044Z,75.87
2023-02-12T07:51:16.100Z,75.81
2023-02-12T07:53:45.597Z,75.70
2023-02-12T07:56:15.706Z,75.13
2023-02-12T07:58:45.482Z,74.60
2023-02-12T08:01:18.859Z,74.82
2023-02-12T08:03:48.464Z,74.69
2023-02-12T08:06:18.928Z,74.73
2023-02-12T08:08:49.134Z,75.17
2023-02-12T08:11:18.769Z,75.63
2023-02-12T08:13:46.945Z,75.95
2023-02-12T08:16:17.663Z,76.57
2023-02-12T08:18:46.234Z,77.02
2023-02-12T08:21:15.479Z,77.38
2023-02-12T08:23:43.313Z,77.81
2023-02-12T08:26:14.725Z,77.58
2023-02-12T08:28:45.837Z,76.99
2023-02-12T08:31:15.105Z,77.11
2023-02-12T08:33:42.906Z,77.06
2023-02-12T08:36:12.529Z,77.30
2023-02-12T08:38:40.611Z,77.54
2023-02-12T08:41:10.450Z,78.15
2023-02-12T08:43:40.201Z,77.15
2023-02-12T08:46:12.487Z,76.00
2023-02-12T08:48:40.867Z,75.75
2023-02-12T08:51:11.112Z,75.07
2023-02-12T08:53:39.870Z,73.08
2023-02-12T08:56:08.810Z,72.22
2023-02-12T08:58:37.474Z,72.72
2023-02-12T09:01:11.167Z,72.49
2023-02-12T09:03:39.042Z,72.27
2023-02-12T09:06:08.888Z,70.56
2023-02-12T09:08:37.328Z,69.85
2023-02-12T09:11:06.845Z,68.62
2023-02-12T09:13:34.766Z,68.02
2023-02-12T09:16:03.531Z,68.50
2023-02-12T09:18:32.935Z,67.69
2023-02-12T09:21:03.608Z,66.72
2023-02-12T09:23:31.678Z,66.15
2023-02-12T09:26:00.144Z,65.15
2023-02-12T09:28:27.855Z,64.45
2023-02-12T09:30:55.829Z,63.83
2023-02-12T09:33:25.166Z,63.34
2023-02-12T09:35:54.872Z,63.35
2023-02-12T09:38:22.689Z,62.91
2023-02-12T09:41:03.654Z,62.15
2023-02-12T09:43:38.117Z,62.24
2023-02-12T09:46:16.453Z,63.75
2023-02-12T09:48:54.738Z,66.14
2023-02-12T09:51:24.355Z,62.76
2023-02-12T09:54:01.737Z,60.92
2023-02-12T09:56:29.552Z,61.27
2023-02-12T09:59:00.896Z,60.42
2023-02-12T10:01:29.870Z,59.03
2023-02-12T10:03:57.748Z,57.20
2023-02-12T10:06:30.791Z,56.83
2023-02-12T10:09:13.548Z,58.77
2023-02-12T10:12:04.704Z,61.23
2023-02-12T10:15:16.196Z,62.92
2023-02-12T10:17:48.887Z,65.83
2023-02-12T10:20:34.339Z,67.07
2023-02-12T10:23:22.248Z,67.30
2023-02-12T10:25:54.441Z,68.38
2023-02-12T10:28:27.011Z,68.20
2023-02-12T10:30:58.708Z,68.62
2023-02-12T10:33:31.065Z,68.78
2023-02-12T10:36:06.254Z,69.98
2023-02-12T10:38:40.412Z,69.55
2023-02-12T10:41:08.334Z,68.33
2023-02-12T10:43:35.952Z,66.92
2023-02-12T10:46:04.108Z,67.13
2023-02-12T10:48:36.169Z,65.72
2023-02-12T10:51:16.866Z,65.89
2023-02-12T10:53:46.858Z,66.71
2023-02-12T10:56:21.358Z,66.33
2023-02-12T10:58:54.748Z,65.95
2023-02-12T11:01:27.220Z,64.85
2023-02-12T11:03:55.827Z,63.29
2023-02-12T11:06:27.967Z,63.58
2023-02-12T11:08:57.664Z,63.40
2023-02-12T11:11:30.614Z,63.21
2023-02-12T11:14:00.983Z,60.80
2023-02-12T11:16:34.503Z,58.62
2023-02-12T11:19:05.651Z,58.15
2023-02-12T11:21:34.479Z,60.06
2023-02-12T11:24:30.608Z,60.54
2023-02-12T11:27:24.035Z,60.39
2023-02-12T11:30:14.040Z,59.93
2023-02-12T11:32:42.962Z,59.36
2023-02-12T11:35:18.229Z,59.54
2023-02-12T11:37:47.959Z,60.28
2023-02-12T11:40:22.566Z,59.64
2023-02-12T11:42:53.942Z,59.66
2023-02-12T11:45:25.625Z,59.42
2023-02-12T11:47:53.742Z,59.49
2023-02-12T11:50:27.877Z,60.55
2023-02-12T11:53:00.310Z,60.23
2023-02-12T11:55:33.773Z,61.02
2023-02-12T11:58:15.219Z,61.35
2023-02-12T12:00:47.798Z,61.44
2023-02-12T12:03:22.640Z,61.84
2023-02-12T12:05:52.765Z,63.44
2023-02-12T12:08:26.026Z,62.68
2023-02-12T12:10:59.608Z,61.86
2023-02-12T12:13:34.687Z,61.25
2023-02-12T12:16:29.214Z,62.49
2023-02-12T12:19:21.843Z,63.50
2023-02-12T12:21:58.278Z,64.29
2023-02-12T12:24:31.762Z,64.65
2023-02-12T12:27:14.562Z,65.12
2023-02-12T12:29:53.649Z,65.62
2023-02-12T12:32:25.010Z,64.42
2023-02-12T12:34:53.231Z,63.52
2023-02-12T12:37:33.813Z,63.67
2023-02-12T12:40:26.940Z,63.11
2023-02-12T12:43:09.602Z,62.66
2023-02-12T12:45:55.534Z,61.66
2023-02-12T12:48:36.814Z,60.63
2023-02-12T12:51:19.642Z,59.61
2023-02-12T12:54:00.756Z,60.36
2023-02-12T12:56:50.228Z,60.10
2023-02-12T12:59:58.996Z,60.70
2023-02-12T13:03:14.071Z,61.57
2023-02-12T13:06:23.652Z,61.52
2023-02-12T13:09:04.787Z,61.63
2023-02-12T13:11:42.488Z,61.95
2023-02-12T13:14:28.847Z,61.85
2023-02-12T13:17:05.497Z,61.77
2023-02-12T13:19:47.522Z,60.98
2023-02-12T13:22:20.016Z,62.65
2023-02-12T13:24:53.105Z,62.83
2023-02-12T13:27:23.926Z,62.98
2023-02-12T13:29:55.785Z,63.00
2023-02-12T13:32:29.484Z,62.62
2023-02-12T13:34:59.127Z,63.41
2023-02-12T13:37:37.690Z,62.98
2023-02-12T13:40:08.100Z,63.33
2023-02-12T13:42:50.333Z,64.54
2023-02-12T13:45:28.726Z,64.52
2023-02-12T13:48:17.364Z,64.96
2023-02-12T13:50:57.275Z,64.70
2023-02-12T13:53:33.351Z,65.08
2023-02-12T13:56:08.948Z,65.13
2023-02-12T13:58:50.466Z,65.78
2023-02-12T14:01:39.565Z,66.00
2023-02-12T14:04:31.696Z,66.62
2023-02-12T14:07:03.487Z,66.88
2023-02-12T14:09:36.714Z,66.72
2023-02-12T14:12:07.630Z,66.96
2023-02-12T14:14:38.597Z,67.80
2023-02-12T14:17:41.212Z,68.20
2023-02-12T14:20:23.187Z,67.86
2023-02-12T14:23:04.100Z,67.17
2023-02-12T14:25:44.577Z,67.12
2023-02-12T14:28:24.341Z,66.91
2023-02-12T14:31:37.871Z,67.06
2023-02-12T14:34:52.206Z,67.70
2023-02-12T14:37:37.761Z,66.89
2023-02-12T14:40:31.705Z,66.57
2023-02-12T14:42:59.935Z,66.26
2023-02-12T14:45:30.782Z,65.99
2023-02-12T14:47:58.794Z,65.37
2023-02-12T14:50:31.544Z,65.07
2023-02-12T14:53:06.895Z,64.84
2023-02-12T14:55:36.762Z,66.49
2023-02-12T14:58:08.056Z,67.68
2023-02-12T15:00:39.322Z,67.90
2023-02-12T15:03:18.805Z,68.22
2023-02-12T15:05:53.809Z,68.29
2023-02-12T15:08:31.798Z,67.52
2023-02-12T15:11:10.239Z,65.97
2023-02-12T15:13:48.782Z,66.13
2023-02-12T15:16:25.987Z,67.30
2023-02-12T15:19:00.795Z,68.86
2023-02-12T15:21:31.609Z,69.52
2023-02-12T15:24:06.359Z,69.71
2023-02-12T15:26:37.907Z,68.81
2023-02-12T15:29:06.580Z,69.28
2023-02-12T15:31:35.334Z,69.21
2023-02-12T15:34:05.789Z,69.53
2023-02-12T15:36:35.116Z,69.82
2023-02-12T15:39:06.279Z,70.28
2023-02-12T15:41:40.184Z,70.89
2023-02-12T15:44:30.393Z,70.39
2023-02-12T15:47:00.795Z,69.90
2023-02-12T15:49:31.458Z,69.35
2023-02-12T15:52:02.804Z,68.70
2023-02-12T15:54:32.754Z,68.40
2023-02-12T15:57:01.845Z,68.64
2023-02-12T15:59:29.642Z,68.48
2023-02-12T16:02:00.767Z,68.38
2023-02-12T16:04:31.285Z,68.69
2023-02-12T16:07:00.150Z,69.18
2023-02-12T16:09:32.585Z,68.85
2023-02-12T16:12:02.425Z,68.41
2023-02-12T16:14:40.629Z,68.54
2023-02-12T16:17:22.065Z,69.47
2023-02-12T16:19:57.209Z,69.77
2023-02-12T16:22:29.273Z,70.26
2023-02-12T16:24:59.712Z,70.52
2023-02-12T16:27:31.045Z,71.63
2023-02-12T16:30:01.039Z,71.87
2023-02-12T16:32:33.748Z,72.44
2023-02-12T16:35:04.675Z,73.27
2023-02-12T16:37:45.441Z,73.43
2023-02-12T16:40:37.519Z,73.25
2023-02-12T16:43:24.014Z,74.21
2023-02-12T16:45:52.824Z,74.64
2023-02-12T16:48:25.477Z,74.87
2023-02-12T16:50:56.344Z,74.86
2023-02-12T16:53:43.441Z,75.48
2023-02-12T16:56:18.116Z,75.69
2023-02-12T16:58:48.407Z,75.07
2023-02-12T17:01:19.250Z,75.03
2023-02-12T17:03:50.283Z,75.43
2023-02-12T17:06:20.071Z,75.71
2023-02-12T17:08:47.752Z,76.38
2023-02-12T17:11:17.907Z,76.47
2023-02-12T17:13:46.286Z,76.65
2023-02-12T17:16:18.878Z,76.52
2023-02-12T17:18:56.256Z,77.21
2023-02-12T17:21:27.659Z,77.10
2023-02-12T17:23:55.289Z,77.18
2023-02-12T17:26:25.252Z,77.45
2023-02-12T17:28:52.860Z,77.66
2023-02-12T17:31:21.216Z,77.80
2023-02-12T17:33:49.330Z,78.09
2023-02-12T17:36:16.936Z,78.16
2023-02-12T17:38:44.577Z,78.35
2023-02-12T17:41:12.786Z,78.57
2023-02-12T17:43:41.723Z,78.73
2023-02-12T17:46:11.833Z,79.13
2023-02-12T17:48:40.383Z,80.04
2023-02-12T17:51:09.807Z,80.98
2023-02-12T17:53:37.750Z,80.95
2023-02-12T17:56:06.118Z,81.76
2023-02-12T17:58:33.764Z,81.43
2023-02-12T18:01:07.159Z,81.71
2023-02-12T18:03:35.171Z,81.81
2023-02-12T18:06:03.018Z,81.86
2023-02-12T18:08:32.109Z,81.50
2023-02-12T18:11:00.368Z,81.73
2023-02-12T18:13:29.281Z,81.52
2023-02-12T18:15:56.909Z,81.82
2023-02-12T18:18:25.865Z,81.68
2023-02-12T18:20:53.481Z,82.08
2023-02-12T18:23:21.545Z,82.29
2023-02-12T18:25:49.154Z,81.69
2023-02-12T18:28:17.154Z,81.42
2023-02-12T18:30:44.828Z,81.22
2023-02-12T18:33:13.805Z,81.14
2023-02-12T18:35:42.787Z,81.76
2023-02-12T18:38:10.541Z,81.45
2023-02-12T18:40:41.058Z,81.56
2023-02-12T18:43:08.697Z,82.75
2023-02-12T18:45:36.303Z,82.34
2023-02-12T18:48:06.768Z,82.40
2023-02-12T18:50:34.342Z,82.14
2023-02-12T18:53:03.627Z,82.38
2023-02-12T18:55:31.215Z,82.38
2023-02-12T18:57:59.134Z,82.95
2023-02-12T19:00:27.542Z,82.52
2023-02-12T19:02:55.142Z,82.37
2023-02-12T19:05:22.794Z,82.22
2023-02-12T19:07:50.932Z,82.43
2023-02-12T19:10:20.013Z,82.24
2023-02-12T19:12:48.095Z,83.12
2023-02-12T19:15:15.692Z,83.36
2023-02-12T19:17:43.496Z,83.62
2023-02-12T19:20:13.427Z,83.56
2023-02-12T19:22:41.931Z,83.36
2023-02-12T19:25:10.332Z,83.22
2023-02-12T19:27:39.267Z,83.67
2023-02-12T19:30:08.322Z,84.37
2023-02-12T19:32:37.797Z,84.92
2023-02-12T19:35:05.958Z,84.78
2023-02-12T19:37:33.532Z,85.13
2023-02-12T19:40:01.825Z,84.95
2023-02-12T19:42:30.688Z,85.49
2023-02-12T19:45:00.042Z,84.81
2023-02-12T19:47:27.881Z,85.29
2023-02-12T19:49:56.122Z,85.06
2023-02-12T19:52:23.751Z,85.21
2023-02-12T19:54:51.315Z,85.49
2023-02-12T19:57:18.890Z,85.30
2023-02-12T19:59:47.163Z,85.32
2023-02-12T20:02:16.240Z,85.63
2023-02-12T20:04:44.295Z,85.63
2023-02-12T20:07:11.933Z,85.87
2023-02-12T20:09:41.006Z,86.26
2023-02-12T20:12:08.654Z,85.89
2023-02-12T20:14:36.278Z,85.89
2023-02-12T20:17:03.929Z,85.30
2023-02-12T20:19:33.764Z,85.62
2023-02-12T20:22:03.226Z,85.07
2023-02-12T20:24:33.260Z,85.45
2023-02-12T20:27:02.466Z,86.03
2023-02-12T20:29:30.338Z,86.58
2023-02-12T20:31:58.463Z,86.36
2023-02-12T20:34:26.176Z,86.15
2023-02-12T20:36:55.170Z,86.53
2023-02-12T20:39:23.346Z,86.97
2023-02-12T20:41:51.216Z,87.32
2023-02-12T20:44:21.466Z,87.26
2023-02-12T20:46:54.444Z,87.25
2023-02-12T20:49:24.429Z,87.87
2023-02-12T20:51:52.548Z,87.68
2023-02-12T20:54:21.647Z,87.55
2023-02-12T20:56:50.463Z,87.16
2023-02-12T20:59:18.658Z,87.00
2023-02-12T21:01:46.824Z,87.15
2023-02-12T21:04:17.534Z,87.89
2023-02-12T21:06:45.817Z,87.95
2023-02-12T21:09:15.833Z,88.57
2023-02-12T21:11:45.978Z,89.11
2023-02-12T21:14:22.614Z,89.95
2023-02-12T21:16:51.599Z,89.21
2023-02-12T21:19:20.279Z,89.78
2023-02-12T21:21:48.045Z,89.33
2023-02-12T21:24:18.505Z,89.67
2023-02-12T21:26:47.441Z,90.07
2023-02-12T21:29:16.140Z,89.87
2023-02-12T21:31:45.953Z,89.94
2023-02-12T21:34:16.153Z,90.30
2023-02-12T21:36:46.198Z,89.84
2023-02-12T21:39:18.809Z,89.92
2023-02-12T21:41:48.422Z,89.96
2023-02-12T21:44:18.396Z,90.13
2023-02-12T21:46:46.981Z,90.25
2023-02-12T21:49:17.806Z,90.60
2023-02-12T21:51:46.114Z,90.64
2023-02-12T21:54:16.719Z,90.48
2023-02-12T21:56:45.881Z,90.53
2023-02-12T21:59:15.402Z,90.72
2023-02-12T22:01:45.685Z,90.38
2023-02-12T22:04:14.277Z,90.65
2023-02-12T22:06:46.113Z,90.65
2023-02-12T22:09:15.452Z,90.53
2023-02-12T22:11:44.447Z,89.83
2023-02-12T22:14:16.142Z,90.56
2023-02-12T22:16:45.261Z,89.90
2023-02-12T22:19:13.114Z,89.68
2023-02-12T22:21:42.069Z,90.19
2023-02-12T22:24:11.956Z,89.98
2023-02-12T22:29:27.024Z,89.53
2023-02-12T22:31:54.712Z,89.32
2023-02-12T22:34:22.352Z,89.88
2023-02-12T22:36:50.082Z,90.13
2023-02-12T22:39:18.413Z,89.84
2023-02-12T22:41:46.467Z,89.73
2023-02-12T22:44:16.170Z,90.09
2023-02-12T22:46:45.537Z,89.96
2023-02-12T22:49:13.329Z,89.80
2023-02-12T22:51:41.896Z,89.38
2023-02-12T22:54:13.875Z,89.65
2023-02-12T22:56:41.966Z,88.81
2023-02-12T22:59:11.274Z,88.51
2023-02-12T23:01:39.989Z,88.36
2023-02-12T23:04:13.244Z,87.89
2023-02-12T23:06:41.049Z,87.49
2023-02-12T23:09:08.652Z,88.08
2023-02-12T23:11:37.098Z,87.52
2023-02-12T23:14:04.685Z,87.95
2023-02-12T23:16:32.989Z,87.78
2023-02-12T23:19:02.396Z,87.96
2023-02-12T23:21:33.094Z,88.47
2023-02-12T23:24:00.702Z,88.12
2023-02-12T23:26:29.276Z,87.86
2023-02-12T23:28:57.798Z,88.71
2023-02-12T23:31:26.543Z,88.79
2023-02-12T23:33:54.608Z,89.13
2023-02-12T23:36:22.706Z,88.66
2023-02-12T23:38:51.719Z,88.92
2023-02-12T23:41:20.303Z,88.94
2023-02-12T23:43:47.920Z,89.03
2023-02-12T23:46:15.706Z,89.43
2023-02-12T23:48:44.437Z,89.54
2023-02-12T23:51:13.265Z,89.34
2023-02-12T23:53:40.851Z,89.77
2023-02-12T23:56:09.949Z,89.30
2023-02-12T23:58:37.742Z,89.25
